KFAY/FAY METAR and TAF weather

Enter ICAO airport designator
Station Type Date Time Source
KFAY METAR 2021/09/28 02:53 UTC NOAA

KFAY 280253Z 19006KT 10SM CLR 20/16 A3006 RMK AO2 SLP172 T02000156 51009


Station Type Date Time Source
KFAY Decoded METAR 2021/09/28 02:53 UTC NOAA

FAYETTEVILLE REGIONAL AIRPORT , NC, United States (KFAY) 34-59N 078-53W 55M
Sep 27, 2021 - 10:53 PM EDT / 2021.09.28 0253 UTC
Wind: from the S (190 degrees) at 7 MPH (6 KT):0
Visibility: 10 mile(s):0
Sky conditions: clear
Temperature: 68.0 F (20.0 C)
Dew Point: 60.1 F (15.6 C)
Relative Humidity: 75%
Pressure (altimeter): 30.06 in. Hg (1017 hPa)
Pressure tendency: 0.03 inches (0.9 hPa) higher than three hours ago
ob: KFAY 280253Z 19006KT 10SM CLR 20/16 A3006 RMK AO2 SLP172 T02000156 51009
cycle: 3

Station Type Date Time Source
KFAY TAF 2021/09/27 18:22 UTC NOAA

TAF KFAY 271720Z 2718/2818 24005KT P6SM SCT045

Example: see airport list